Palmerston, Canada
Current Conditions -  °F | °C
As of 11:00 AM on Tuesday 21 Oct 2014 (Local Time) from CYKF Reporting Station
Light Rain Light Rain  
Wind Chill: 42°   Ceiling: 1000
Heat Index: 46°   Visibility: 3mi
Dew Point: 45°   Wind: 9mph
Humidity: 93%   Direction: 320°NW
Pressure: 29.88"   Gusts: NA
Location:  43.83°N, 80.85°W
Report Text: CYKF 211500Z AUTO 32008KT 3SM -RA BR BKN010 OVC015 08/07 A2988 RMK PCPN 2.2MM PAST HR SLP123
Loading
Personal Weather Stations






























Interactive Weather Map
Tropical Storm Tracking
New forecast layout! Learn more

10-Day Weather Forecast

Advertisements
Track Severe Weather on mobile